Schedule Details


Flight Number: CTN415
Departure: Frankfurt/main (EDDF) at 20:45
Arrival: Franjo Tudman (LDZA) at 22:10
Route: NOMBO UZ738 MUN UM867 VAROB DCT PIKIT DCT ARGOM

Weather Information
EDDF 172350Z 08005KT CAVOK 23/17 Q1013 NOSIG
LDZA 180000Z 00000KT CAVOK 18/16 Q1017 NOSIG
Schedule Frequency

Route Map